• Join FlightAware (Why Join?)
  • Login
  • US Flag 
10:59AM EST


 

Airport Tracker/Info


-or-


 

Live Flight TrackerFlight Track Log ✈ DAL6115 ✈ 29-Apr-2013 ✈ KJFK - KROC

Flight Track Log - Related Links

Times and Time Zones

All times are in EDT time to prevent confusion due to time zone crossing. See the DAL6115 flight status page for this flight to view local times or setup timezone preferences in your user account.

Time Position Orientation Groundspeed Altitude Reporting Facility
EDT Latitude Longitude Course Direction KTS MPH feet Rate Location/Type
09:50AM 40.6333 -73.7167 315° West 186 214 3,500  Level New York TRACON
09:51AM 40.6333 -73.6333 90° East 221 254 5,800 2,340 Climbing New York TRACON
09:52AM 40.8229 -74.0416 315° West  Level FlightAware Approximate
09:52AM 40.6833 -73.5667 45° Northeast 250 288 8,200  Level New York TRACON
09:53AM 40.8904 -74.1315 315° West  Level FlightAware Approximate
09:53AM 40.7500 -73.5667 360° North 240 276 10,900  Level New York TRACON
09:54AM 40.9586 -74.2205 316° Northwest  Level FlightAware Approximate
09:54AM 40.8167 -73.5667 360° North 246 283 13,100  Level New York TRACON
09:55AM 41.0274 -74.3090 316° Northwest  Level FlightAware Approximate
09:55AM 40.8833 -73.5833 349° North 245 282 15,200  Level New York TRACON
09:56AM 41.0989 -74.3930 315° West  Level FlightAware Approximate
09:56AM 40.9333 -73.6167 333° Northwest 263 303 16,900  Level New York TRACON
09:57AM 40.9667 -73.7000 298° West 249 287 17,000  Climbing New York TRACON
09:58AM 41.0000 -73.7833 298° West 248 285 17,000 300 Level New York TRACON
10:00AM 41.0439 -73.9486 289° West 257 296 17,900 840 Climbing New York Center
10:01AM 41.0747 -74.0383 295° West 262 302 19,500 1,680 Climbing New York Center
10:02AM 41.1033 -74.1358 291° West 268 308 21,400 1,260 Climbing New York Center
10:03AM 41.1294 -74.2364 289° West 273 314 22,000 300 Climbing New York Center
10:04AM 41.1578 -74.3369 291° West 279 321 22,000  Level New York Center
10:05AM 41.1881 -74.4378 292° West 289 333 22,000  Level New York Center
10:06AM 41.2142 -74.5303 291° West 295 339 22,000  Level New York Center
10:07AM 41.2547 -74.6264 299° West 283 326 22,000  Level New York Center
10:08AM 41.3044 -74.7039 311° West 283 326 22,000  Level New York Center
10:09AM 41.3517 -74.7839 308° West 283 326 22,000  Level New York Center
10:10AM 41.3989 -74.8614 309° West 278 320 22,000  Level New York Center
10:11AM 41.4464 -74.9364 310° West 273 314 22,000  Level New York Center
10:12AM 41.4914 -75.0139 308° West 273 314 22,000  Level New York Center
10:13AM 41.5386 -75.0917 309° West 268 308 22,000  Level New York Center
10:14AM 41.5792 -75.1775 302° West 268 308 22,000  Level New York Center
10:15AM 41.6069 -75.2708 292° West 268 308 22,000  Level New York Center
10:16AM 41.6344 -75.3669 291° West 278 320 22,000  Level New York Center
10:17AM 41.6619 -75.4661 290° West 278 320 22,000  Level New York Center
10:18AM 41.6894 -75.5597 292° West 278 320 22,000  Level New York Center
10:19AM 41.7167 -75.6533 291° West 273 314 22,000  Level New York Center
10:20AM 41.7422 -75.7442 291° West 273 314 22,000  Level New York Center
10:21AM 41.7694 -75.8353 292° West 273 314 22,000  Level New York Center
10:22AM 41.7944 -75.9317 289° West 273 314 22,000  Level New York Center
10:23AM 41.8197 -76.0228 290° West 273 314 22,000 -60 Level New York Center
10:24AM 41.8533 -76.1117 297° West 273 314 21,900 -300 Descending New York Center
10:25AM 41.9103 -76.1831 317° Northwest 273 314 21,400 -540 Descending New York Center
10:26AM 41.9614 -76.2542 314° West 268 308 20,900 -540 Descending New York Center
10:27AM 42.0144 -76.3200 317° Northwest 268 308 20,400 -540 Descending New York Center
10:28AM 42.0633 -76.3856 315° West 263 303 19,900 -480 Descending New York Center
10:29AM 42.1142 -76.4542 315° West 258 297 19,500 -480 Descending New York Center
10:30AM 42.1631 -76.5200 315° West 258 297 19,000 -540 Descending New York Center
10:31AM 42.2244 -76.5983 317° Northwest 264 304 18,500 -480 Descending Cleveland Center
10:32AM 42.2747 -76.6653 315° West 264 304 18,000 -420 Descending Cleveland Center
10:33AM 42.3272 -76.7353 315° West 264 304 17,700 -360 Descending Cleveland Center
10:34AM 42.3794 -76.8022 317° Northwest 264 304 17,300 -480 Descending Cleveland Center
10:35AM 42.4297 -76.8725 314° West 264 304 16,800 -540 Descending Cleveland Center
10:36AM 42.4819 -76.9397 316° Northwest 264 304 16,300 -480 Descending Cleveland Center
10:37AM 42.5233 -76.9994 313° West 261 300 16,000 -540 Descending Cleveland Center
10:37AM 42.5408 -77.0239 314° West 259 298 15,700 -780 Descending Cleveland Center
10:38AM 42.5794 -77.0611 325° Northwest 257 296 15,100 -1,320 Descending Cleveland Center
10:39AM 42.6400 -77.1311 320° Northwest 234 269 13,200 -1,560 Descending Cleveland Center
10:40AM 42.6828 -77.1683 327° Northwest 241 277 12,000 -1,500 Descending Cleveland Center
10:41AM 42.7425 -77.2186 328° Northwest 241 277 10,500 -1,380 Descending Cleveland Center
10:42AM 42.8108 -77.2744 329° Northwest 242 278 9,100 -1,140 Descending Cleveland Center
10:44AM 42.9089 -77.3486 331° Northwest 231 266 7,100 -1,200 Descending Cleveland Center
10:45AM 42.9622 -77.3886 331° Northwest 231 266 5,800 -1,260 Descending Cleveland Center
10:46AM 43.0175 -77.4283 332° Northwest 231 266 4,600 -840 Descending Cleveland Center
10:47AM 43.0856 -77.4789 332° Northwest 208 239 4,000 -780 Descending Cleveland Center
10:48AM 43.1367 -77.5192 330° Northwest 201 231 2,900 -780 Descending Cleveland Center
10:49AM 43.1733 -77.5714 314° West 208 239 2,500 -480 Descending Cleveland Center